Hooksett, NH

5:25 PM EST on December 22, 2014 (GMT -0500)
Southern New Hampshire University | Change Station
CLOSE
Current Station
Personal Weather Station
Location: Hooksett, NH
Elevation: 308 ft
Nearby Weather Stations
Active Advisory: Winter Weather Advisory

Elev 308 ft 43.04 °N, 71.45 °W | Updated 49 seconds ago

Overcast
Overcast
37.5 °F
Feels Like 38 °F
N
1.0
Wind Variable Wind from ENE
Gusts 2.0 mph

Today
High -- | Low -- °F
--% Chance of Precip.
Yesterday
High -- | Low -- °F
Precip. -- in
7:14 AM 4:14 PM
New Moon, 1% visible
Pressure 30.33 in
Visibility 10.0 miles
Clouds Overcast 1400 ft
Windchill 38 °F
Dew Point 33 °F
Humidity 83%
Rainfall 0.00 in
Snow Depth Not available.
UV 0 out of 12
Pollen .10 out of 12
Air Quality Not available.
Flu Activity Not available.
SPECI KMHT 222221Z 00000KT 10SM OVC014 03/00 A3033 RMK AO2 RAB09E18 P0000 T00280000

More Conditions Fewer Conditions

Pressure 30.33 in
Visibility 10.0 miles
Clouds Overcast 1400 ft
Windchill 38 °F
Dew Point 33 °F
Humidity 83%
Rainfall 0.00 in
Snow Depth Not available.
UV 0 out of 12
Pollen .10 out of 12
Air Quality Not available.
Flu Activity Not available.
SPECI KMHT 222221Z 00000KT 10SM OVC014 03/00 A3033 RMK AO2 RAB09E18 P0000 T00280000

More Conditions Fewer Conditions

10-Day Weather Forecast

Almanac

Astronomy

Dec. 22, 2014 Rise Set
Actual Time
Civil Twilight
Nautical Twilight
Astronomical Twilight
Moon
Length of Visible Light
Length of Day
Tomorrow will be .
, % of the Moon is Illuminated

Today's Extremes

State Highs State Lows

Community

WunderPhotos

Upload Photos

1,779,694 photos uploaded!

WunderBlogs® & News

Nearby

Air Quality

  Air Quality AQ Index Pollutant
Not available.

Snow Depth

Station Depth Elevation

Earthquake Activity

City Distance Mag. Time & Date
Minimum magnitude displayed is 2.5.

Coastal Water Temperatures

Place Temperature

Nearby Weather Stations